Time;durP1;ratioP1;P1;durP2;ratioP2;P2;SDS_P1;SDS_P2;PMS_P1;PMS_P2;Temp;Humidity;BMP_temperature;BMP_pressure;BME280_temperature;BME280_humidity;BME280_pressure;Samples;Min_cycle;Max_cycle;Signal;HPM_P1;HPM_P2
2022/10/09 00:06:19;;;;;;;19.37;9.63;;;5.80;99.90;;;;;;5074279;28;20170;-59
2022/10/09 00:08:48;;;;;;;18.43;10.20;;;5.80;99.90;;;;;;5074068;28;20516;-59
2022/10/09 00:11:19;;;;;;;17.97;9.80;;;5.80;99.90;;;;;;5106915;28;20220;-59
2022/10/09 00:13:48;;;;;;;17.80;9.67;;;5.80;99.90;;;;;;5074057;28;20176;-59
2022/10/09 00:16:18;;;;;;;18.13;9.87;;;5.90;99.90;;;;;;5072790;28;20218;-59
2022/10/09 00:18:47;;;;;;;20.10;10.07;;;5.80;99.90;;;;;;5074184;28;20222;-59
2022/10/09 00:21:21;;;;;;;24.77;11.73;;;5.80;99.90;;;;;;5072669;28;20188;-60
2022/10/09 00:23:50;;;;;;;21.57;11.00;;;5.80;99.90;;;;;;5073975;28;20188;-60
2022/10/09 00:26:19;;;;;;;23.80;11.17;;;5.80;99.90;;;;;;5072576;28;20180;-59
2022/10/09 00:28:48;;;;;;;26.77;11.37;;;5.80;99.90;;;;;;5073792;28;20192;-59
2022/10/09 00:31:16;;;;;;;19.73;10.60;;;5.80;99.90;;;;;;5072396;28;20622;-59
2022/10/09 00:33:48;;;;;;;18.67;10.67;;;5.70;99.90;;;;;;5073900;28;20230;-59
2022/10/09 00:36:20;;;;;;;20.70;11.63;;;5.70;99.90;;;;;;5072831;28;20200;-59
2022/10/09 00:38:49;;;;;;;24.23;11.87;;;5.70;99.90;;;;;;5073896;28;20195;-59
2022/10/09 00:41:20;;;;;;;23.77;11.57;;;5.80;99.90;;;;;;5074224;28;20203;-59
2022/10/09 00:43:51;;;;;;;32.17;12.23;;;5.80;99.90;;;;;;5073856;28;20188;-59
2022/10/09 00:46:25;;;;;;;22.37;12.13;;;5.80;99.90;;;;;;5073918;28;20535;-59
2022/10/09 00:49:11;;;;;;;28.23;11.93;;;5.80;99.90;;;;;;5074347;28;20531;-59
2022/10/09 00:51:43;;;;;;;28.20;12.07;;;5.80;99.90;;;;;;5072342;28;20199;-59
2022/10/09 00:54:14;;;;;;;25.17;12.00;;;5.70;99.90;;;;;;5073510;28;20199;-59
2022/10/09 00:56:43;;;;;;;24.07;11.40;;;5.70;99.90;;;;;;5072365;28;20216;-59
2022/10/09 00:59:11;;;;;;;21.47;11.47;;;5.70;99.90;;;;;;5073218;28;20352;-59
2022/10/09 01:06:22;;;;;;;17.97;10.37;;;5.60;99.90;;;;;;5073527;28;20164;-59
2022/10/09 01:13:42;;;;;;;16.07;10.00;;;5.50;99.90;;;;;;5073457;28;20191;-59
2022/10/09 01:16:19;;;;;;;19.97;10.00;;;5.50;99.90;;;;;;5073080;28;20221;-59
2022/10/09 01:18:57;;;;;;;22.53;10.43;;;5.50;99.90;;;;;;5073190;28;20301;-60
2022/10/09 01:21:31;;;;;;;21.07;10.07;;;5.50;99.90;;;;;;5073789;28;20647;-59
2022/10/09 01:24:12;;;;;;;25.77;10.80;;;5.40;99.90;;;;;;5073211;28;20188;-59
2022/10/09 01:27:01;;;;;;;17.93;9.87;;;5.40;99.90;;;;;;5071920;28;20188;-59
2022/10/09 01:29:34;;;;;;;23.53;10.50;;;5.40;99.90;;;;;;5072153;28;20184;-59
2022/10/09 01:32:05;;;;;;;22.33;9.80;;;5.40;99.90;;;;;;5072913;28;20188;-59
2022/10/09 01:34:34;;;;;;;14.40;9.53;;;5.40;99.90;;;;;;5073119;28;20242;-58
2022/10/09 01:37:03;;;;;;;18.20;10.10;;;5.40;99.90;;;;;;5073361;28;20212;-58
2022/10/09 01:39:34;;;;;;;15.17;9.83;;;5.40;99.90;;;;;;5073147;28;20196;-59
2022/10/09 01:42:04;;;;;;;20.40;10.23;;;5.40;99.90;;;;;;5073389;28;20267;-58
2022/10/09 01:44:34;;;;;;;21.17;9.80;;;5.40;99.90;;;;;;5073445;28;20188;-59
2022/10/09 01:47:03;;;;;;;17.90;9.53;;;5.40;99.90;;;;;;5073232;28;20677;-59
2022/10/09 01:49:47;;;;;;;15.00;9.77;;;5.30;99.90;;;;;;5073405;28;20188;-59
2022/10/09 01:52:25;;;;;;;15.60;9.27;;;5.30;99.90;;;;;;5073143;28;20246;-59
2022/10/09 01:55:05;;;;;;;17.87;9.83;;;5.30;99.90;;;;;;5073218;28;20185;-59
2022/10/09 01:57:40;;;;;;;17.87;9.20;;;5.30;99.90;;;;;;5072819;28;20215;-59
2022/10/09 02:00:12;;;;;;;14.57;9.40;;;5.30;99.90;;;;;;5073274;28;20658;-59
2022/10/09 02:07:25;;;;;;;21.53;10.43;;;5.30;99.90;;;;;;5073209;28;20171;-59
2022/10/09 02:09:55;;;;;;;15.17;8.37;;;5.20;99.90;;;;;;5071923;28;20553;-59
2022/10/09 02:12:26;;;;;;;15.80;8.87;;;5.10;99.90;;;;;;5073153;28;20239;-59
2022/10/09 02:14:57;;;;;;;20.93;10.17;;;5.10;99.90;;;;;;5076797;28;20188;-58
2022/10/09 02:17:30;;;;;;;16.03;9.10;;;5.20;99.90;;;;;;5076395;28;20298;-59
2022/10/09 02:20:04;;;;;;;15.93;10.03;;;5.20;99.90;;;;;;5076256;28;20198;-59
2022/10/09 02:22:34;;;;;;;20.20;9.73;;;5.20;99.90;;;;;;5076350;28;20565;-59
2022/10/09 02:25:05;;;;;;;21.47;10.67;;;5.20;99.90;;;;;;5076343;28;20195;-58
2022/10/09 02:27:34;;;;;;;17.37;9.83;;;5.20;99.90;;;;;;5076365;28;20191;-59
2022/10/09 02:30:07;;;;;;;26.50;11.13;;;5.30;99.90;;;;;;5076082;28;20195;-59
2022/10/09 02:32:35;;;;;;;21.33;10.50;;;5.40;99.90;;;;;;5074887;28;20210;-59
2022/10/09 02:35:04;;;;;;;22.30;10.60;;;5.40;99.90;;;;;;5074641;28;20188;-59
2022/10/09 02:37:32;;;;;;;19.63;10.70;;;5.40;99.90;;;;;;5074662;28;20227;-59
2022/10/09 02:40:05;;;;;;;16.73;9.97;;;5.40;99.90;;;;;;5075072;28;20199;-59
2022/10/09 02:42:38;;;;;;;18.97;10.60;;;5.40;99.90;;;;;;5054552;28;20678;-59
2022/10/09 02:45:09;;;;;;;17.13;9.37;;;5.30;99.90;;;;;;5056428;28;20689;-58
2022/10/09 02:47:37;;;;;;;15.73;9.37;;;5.30;99.90;;;;;;5054798;28;20251;-58
2022/10/09 02:50:07;;;;;;;18.37;10.23;;;5.20;99.90;;;;;;5055891;28;20671;-59
2022/10/09 02:52:35;;;;;;;21.57;9.90;;;5.20;99.90;;;;;;5055884;28;20204;-59
2022/10/09 02:55:04;;;;;;;19.10;10.87;;;5.20;99.90;;;;;;5055657;28;20501;-59
2022/10/09 02:57:32;;;;;;;17.43;9.67;;;5.20;99.90;;;;;;5055756;28;20213;-59
2022/10/09 03:00:01;;;;;;;17.57;9.20;;;5.20;99.90;;;;;;5055496;28;20192;-59
2022/10/09 03:02:32;;;;;;;13.13;9.33;;;5.10;99.90;;;;;;5055335;28;20212;-59
2022/10/09 03:05:01;;;;;;;14.47;9.07;;;5.10;99.90;;;;;;5055319;28;20193;-60
2022/10/09 03:07:30;;;;;;;16.63;9.23;;;5.00;99.90;;;;;;5055455;28;20196;-59
2022/10/09 03:09:58;;;;;;;18.10;9.60;;;5.00;99.90;;;;;;5055785;28;20201;-59
2022/10/09 03:12:26;;;;;;;12.60;9.13;;;5.00;99.90;;;;;;5053809;28;20232;-59
2022/10/09 03:14:55;;;;;;;12.20;8.57;;;5.00;99.90;;;;;;5055328;28;20539;-59
2022/10/09 03:17:23;;;;;;;15.37;8.20;;;4.90;99.90;;;;;;5055039;28;20201;-59
2022/10/09 03:19:53;;;;;;;15.17;8.93;;;4.80;99.90;;;;;;5055123;28;20608;-59
2022/10/09 03:22:21;;;;;;;14.07;9.00;;;4.80;99.90;;;;;;5062802;28;20193;-59
2022/10/09 03:24:49;;;;;;;14.37;8.67;;;4.80;99.90;;;;;;5074147;28;20188;-59
2022/10/09 03:27:17;;;;;;;16.53;8.70;;;4.80;99.90;;;;;;5073824;28;20196;-59
2022/10/09 03:29:46;;;;;;;17.83;8.23;;;4.80;99.90;;;;;;5075423;28;20631;-59
2022/10/09 03:32:14;;;;;;;20.47;9.83;;;4.80;99.90;;;;;;5074778;28;20203;-58
2022/10/09 03:34:42;;;;;;;11.93;8.20;;;4.80;99.90;;;;;;5073646;28;20203;-59
2022/10/09 03:37:12;;;;;;;17.57;8.87;;;4.80;99.90;;;;;;5074712;28;20586;-60
2022/10/09 03:44:18;;;;;;;15.40;8.60;;;4.80;99.90;;;;;;5075172;28;20156;-60
2022/10/09 03:46:46;;;;;;;15.53;8.83;;;4.70;99.90;;;;;;5074829;28;20195;-58
2022/10/09 03:49:16;;;;;;;14.13;8.40;;;4.70;99.90;;;;;;5073852;28;20204;-59
2022/10/09 03:51:44;;;;;;;15.83;8.60;;;4.60;99.90;;;;;;5073890;28;20195;-59
2022/10/09 03:54:14;;;;;;;12.60;8.30;;;4.70;99.90;;;;;;5056934;28;20199;-59
2022/10/09 03:56:42;;;;;;;18.50;9.07;;;4.70;99.90;;;;;;5073304;28;20203;-59
2022/10/09 03:59:11;;;;;;;16.97;9.17;;;4.70;99.90;;;;;;5074587;28;20211;-59
2022/10/09 04:01:39;;;;;;;17.13;9.50;;;4.70;99.90;;;;;;5074220;28;20212;-59
2022/10/09 04:04:45;;;;;;;16.90;9.73;;;4.70;99.90;;;;;;5074418;28;20267;-59
2022/10/09 04:07:14;;;;;;;15.83;9.47;;;4.70;99.90;;;;;;5073274;28;20253;-59
2022/10/09 04:09:43;;;;;;;13.83;9.40;;;4.70;99.90;;;;;;5073320;28;20601;-59
2022/10/09 04:12:12;;;;;;;14.53;9.50;;;4.70;99.90;;;;;;5072555;28;20702;-59
2022/10/09 04:14:41;;;;;;;15.67;9.20;;;4.70;99.90;;;;;;5074469;28;20284;-60
2022/10/09 04:17:09;;;;;;;20.37;8.97;;;4.70;99.90;;;;;;5074080;28;20191;-59
2022/10/09 04:19:38;;;;;;;18.57;8.97;;;4.70;99.90;;;;;;5073800;28;20180;-59
2022/10/09 04:22:06;;;;;;;16.13;9.03;;;4.70;99.90;;;;;;5074245;28;20218;-59
2022/10/09 04:24:34;;;;;;;11.47;8.37;;;4.70;99.90;;;;;;5073951;28;20184;-59
2022/10/09 04:27:04;;;;;;;15.40;8.73;;;4.70;99.90;;;;;;5073917;28;20199;-58
2022/10/09 04:29:33;;;;;;;16.03;8.57;;;4.60;99.90;;;;;;5072618;28;20237;-59
2022/10/09 04:32:01;;;;;;;15.50;8.93;;;4.60;99.90;;;;;;5073654;28;20204;-59
2022/10/09 04:34:29;;;;;;;20.53;9.03;;;4.60;99.90;;;;;;5073808;28;20199;-59
2022/10/09 04:36:58;;;;;;;19.03;8.97;;;4.60;99.90;;;;;;5072531;28;20699;-59
2022/10/09 04:39:26;;;;;;;17.57;8.90;;;4.50;99.90;;;;;;5073700;28;20207;-59
2022/10/09 04:41:54;;;;;;;16.03;9.17;;;4.50;99.90;;;;;;5072788;28;20543;-59
2022/10/09 04:44:24;;;;;;;12.50;8.07;;;4.50;99.90;;;;;;5072449;28;20665;-59
2022/10/09 04:46:52;;;;;;;13.23;8.30;;;4.50;99.90;;;;;;5074006;28;20599;-59
2022/10/09 04:49:21;;;;;;;14.70;8.70;;;4.50;99.90;;;;;;5073504;28;20184;-59
2022/10/09 04:51:49;;;;;;;14.27;8.67;;;4.50;99.90;;;;;;5073610;28;20206;-59
2022/10/09 04:54:17;;;;;;;15.03;8.00;;;4.50;99.90;;;;;;5073472;28;20188;-59
2022/10/09 04:56:45;;;;;;;15.27;8.80;;;4.50;99.90;;;;;;5073485;28;20196;-59
2022/10/09 04:59:14;;;;;;;15.90;8.90;;;4.40;99.90;;;;;;5072087;28;20212;-58
2022/10/09 05:01:43;;;;;;;17.63;8.47;;;4.40;99.90;;;;;;5089136;28;20200;-59
2022/10/09 05:04:12;;;;;;;12.70;8.10;;;4.40;99.90;;;;;;5073318;28;20536;-60
2022/10/09 05:06:40;;;;;;;14.97;7.67;;;4.40;99.90;;;;;;5073653;28;20192;-59
2022/10/09 05:09:09;;;;;;;12.17;8.30;;;4.40;99.90;;;;;;5072049;28;20531;-59
2022/10/09 05:11:37;;;;;;;22.20;8.27;;;4.40;99.90;;;;;;5072064;28;20593;-59
2022/10/09 05:14:10;;;;;;;12.87;7.63;;;4.40;99.90;;;;;;5073917;28;20665;-60
2022/10/09 05:16:38;;;;;;;11.10;7.73;;;4.40;99.90;;;;;;5073476;28;20666;-59
2022/10/09 05:19:28;;;;;;;15.97;7.90;;;4.40;99.90;;;;;;5073073;28;20214;-59
2022/10/09 05:21:57;;;;;;;12.10;7.37;;;4.40;99.90;;;;;;5073197;28;20180;-59
2022/10/09 05:24:25;;;;;;;13.63;8.07;;;4.50;99.90;;;;;;5073242;28;20191;-59
2022/10/09 05:26:54;;;;;;;16.60;8.63;;;4.40;99.90;;;;;;5073080;28;20184;-60
2022/10/09 05:29:22;;;;;;;17.37;8.07;;;4.40;99.90;;;;;;5073032;28;20188;-59
2022/10/09 05:31:50;;;;;;;12.40;7.90;;;4.40;99.90;;;;;;5073731;28;20196;-59
2022/10/09 05:34:18;;;;;;;14.20;7.43;;;4.40;99.90;;;;;;5072892;28;20224;-59
2022/10/09 05:36:48;;;;;;;13.13;6.97;;;4.30;99.90;;;;;;5073310;28;20192;-59
2022/10/09 05:39:16;;;;;;;13.00;7.00;;;4.30;99.90;;;;;;5073326;28;20219;-59
2022/10/09 05:41:44;;;;;;;8.87;6.73;;;4.30;99.90;;;;;;5073594;28;20199;-60
2022/10/09 05:44:13;;;;;;;13.13;7.07;;;4.20;99.90;;;;;;5073011;28;20614;-59
2022/10/09 05:46:42;;;;;;;11.57;6.90;;;4.20;99.90;;;;;;5072853;28;20188;-60
2022/10/09 05:49:11;;;;;;;9.83;6.40;;;4.20;99.90;;;;;;5076692;28;20192;-59
2022/10/09 05:51:41;;;;;;;10.93;7.27;;;4.20;99.90;;;;;;5077016;28;20306;-59
2022/10/09 05:54:15;;;;;;;8.23;6.77;;;4.10;99.90;;;;;;5077025;28;20234;-59
2022/10/09 05:56:45;;;;;;;9.33;6.93;;;4.20;99.90;;;;;;5075374;28;20191;-59
2022/10/09 05:59:18;;;;;;;14.17;7.23;;;4.20;99.90;;;;;;5076945;28;20222;-60
2022/10/09 06:01:50;;;;;;;14.37;7.40;;;4.20;99.90;;;;;;5075460;28;20212;-59
2022/10/09 06:04:21;;;;;;;10.97;6.67;;;4.20;99.90;;;;;;5075290;28;20192;-60
2022/10/09 06:06:49;;;;;;;17.17;7.43;;;4.20;99.90;;;;;;5075836;28;20661;-60
2022/10/09 06:09:21;;;;;;;12.63;7.43;;;4.20;99.90;;;;;;5075313;28;20188;-60
2022/10/09 06:11:51;;;;;;;12.33;7.17;;;4.20;99.90;;;;;;5076540;28;20239;-60
2022/10/09 06:14:20;;;;;;;10.97;7.00;;;4.20;99.90;;;;;;5076675;28;20189;-59
2022/10/09 06:16:49;;;;;;;10.13;6.53;;;4.20;99.90;;;;;;5076792;28;20271;-60
2022/10/09 06:19:19;;;;;;;16.10;7.20;;;4.20;99.90;;;;;;5075330;28;20207;-60
2022/10/09 06:21:48;;;;;;;12.97;6.70;;;4.20;99.90;;;;;;5076586;28;20189;-59
2022/10/09 06:24:20;;;;;;;12.73;6.53;;;4.20;99.90;;;;;;5076475;28;20183;-60
2022/10/09 06:26:55;;;;;;;10.63;6.53;;;4.20;99.90;;;;;;5076342;28;20223;-60
2022/10/09 06:29:24;;;;;;;12.57;6.83;;;4.20;99.90;;;;;;5075952;28;20176;-60
2022/10/09 06:31:52;;;;;;;11.13;6.87;;;4.30;99.90;;;;;;5076363;28;20196;-60
2022/10/09 06:34:20;;;;;;;12.10;7.07;;;4.30;99.90;;;;;;5076113;28;20196;-59
2022/10/09 06:36:49;;;;;;;10.23;6.83;;;4.30;99.90;;;;;;5076028;28;20204;-60
2022/10/09 06:39:18;;;;;;;12.77;7.17;;;4.50;99.90;;;;;;5076096;28;20298;-59
2022/10/09 06:41:47;;;;;;;11.80;6.93;;;4.60;99.90;;;;;;5076018;28;20188;-59
2022/10/09 06:44:16;;;;;;;11.53;7.60;;;4.60;99.90;;;;;;5075116;28;20192;-58
2022/10/09 06:46:46;;;;;;;15.77;7.57;;;4.70;99.90;;;;;;5076288;28;20274;-60
2022/10/09 06:49:14;;;;;;;15.93;8.27;;;4.80;99.90;;;;;;5074485;28;20192;-59
2022/10/09 06:51:42;;;;;;;15.93;7.97;;;4.90;99.90;;;;;;5075969;28;20199;-60
2022/10/09 06:54:12;;;;;;;15.97;8.57;;;5.10;99.90;;;;;;5074737;28;20188;-59
2022/10/09 06:56:41;;;;;;;17.23;8.40;;;5.20;99.90;;;;;;5075478;28;20654;-60
2022/10/09 06:59:12;;;;;;;16.37;8.27;;;5.30;99.90;;;;;;5074927;28;20562;-60
2022/10/09 07:01:40;;;;;;;16.77;8.40;;;5.40;99.90;;;;;;5075614;28;20204;-59
2022/10/09 07:04:11;;;;;;;17.17;9.10;;;5.60;99.90;;;;;;5075893;28;20192;-59
2022/10/09 07:06:41;;;;;;;17.60;8.97;;;5.70;99.90;;;;;;5075656;28;20199;-59
2022/10/09 07:09:11;;;;;;;16.87;9.10;;;5.80;99.90;;;;;;5075739;28;20184;-59
2022/10/09 07:11:42;;;;;;;19.97;9.17;;;6.00;99.90;;;;;;5074068;28;20648;-60
2022/10/09 07:14:14;;;;;;;22.37;9.10;;;6.20;99.90;;;;;;5075269;28;20198;-59
2022/10/09 07:16:44;;;;;;;15.57;9.00;;;6.40;99.90;;;;;;5075274;28;20199;-60
2022/10/09 07:19:13;;;;;;;21.53;9.97;;;6.70;99.90;;;;;;5108182;28;20216;-59
2022/10/09 07:21:43;;;;;;;18.53;9.90;;;6.90;99.90;;;;;;5075134;28;20662;-59
2022/10/09 07:24:12;;;;;;;21.03;9.70;;;7.20;99.90;;;;;;5075153;28;20666;-60
2022/10/09 07:26:43;;;;;;;24.60;8.87;;;7.50;99.90;;;;;;5075046;28;20234;-59
2022/10/09 07:29:15;;;;;;;16.30;8.73;;;7.70;99.90;;;;;;5074859;28;20196;-60
2022/10/09 07:31:44;;;;;;;19.90;8.20;;;7.80;99.90;;;;;;5074946;28;20198;-61
2022/10/09 07:34:13;;;;;;;16.30;7.60;;;8.00;99.90;;;;;;5074934;28;20555;-60
2022/10/09 07:36:41;;;;;;;13.00;7.37;;;8.20;99.90;;;;;;5075097;28;20207;-59
2022/10/09 07:39:09;;;;;;;14.60;7.50;;;8.40;99.90;;;;;;5074920;28;20184;-60
2022/10/09 07:41:38;;;;;;;10.97;6.53;;;8.60;99.90;;;;;;5075009;28;20200;-60
2022/10/09 07:44:06;;;;;;;14.93;6.03;;;8.80;99.90;;;;;;5074741;28;20211;-60
2022/10/09 07:46:36;;;;;;;15.63;6.80;;;9.00;99.90;;;;;;5074824;28;20563;-60
2022/10/09 07:49:05;;;;;;;10.97;6.17;;;9.20;99.90;;;;;;5074740;28;20188;-60
2022/10/09 07:51:33;;;;;;;12.93;5.83;;;9.30;99.90;;;;;;5074643;28;20218;-60
2022/10/09 07:54:02;;;;;;;10.43;6.20;;;9.50;99.90;;;;;;5074569;28;20195;-60
2022/10/09 07:56:31;;;;;;;10.37;5.97;;;9.80;99.90;;;;;;5074578;28;20196;-61
2022/10/09 07:59:01;;;;;;;9.40;6.10;;;9.90;99.90;;;;;;5074607;28;20192;-60
2022/10/09 08:01:32;;;;;;;11.90;6.17;;;10.20;99.90;;;;;;5074142;28;20219;-60
2022/10/09 08:04:02;;;;;;;13.40;5.87;;;10.40;99.90;;;;;;5072890;28;20184;-61
2022/10/09 08:06:31;;;;;;;16.63;6.30;;;10.50;99.90;;;;;;5074096;28;20189;-60
2022/10/09 08:09:04;;;;;;;15.90;6.23;;;10.70;99.90;;;;;;5074165;28;20199;-60
2022/10/09 08:11:32;;;;;;;12.23;6.90;;;10.70;99.90;;;;;;5073102;28;20243;-59
2022/10/09 08:14:01;;;;;;;12.03;6.60;;;10.90;99.90;;;;;;5057332;28;20188;-61
2022/10/09 08:21:16;;;;;;;9.90;6.43;;;11.00;99.90;;;;;;5056137;28;20690;-60
2022/10/09 08:33:02;;;;;;;11.80;6.57;;;11.50;99.90;;;;;;5059539;28;20604;-60
2022/10/09 08:40:16;;;;;;;9.63;5.93;;;11.80;99.90;;;;;;5063714;28;20342;-60
2022/10/09 08:55:49;;;;;;;9.00;4.90;;;12.40;99.90;;;;;;5053245;28;20172;-60
2022/10/09 09:03:18;;;;;;;7.47;4.50;;;12.70;99.90;;;;;;5073154;28;20601;-60
2022/10/09 09:10:14;;;;;;;10.57;4.40;;;13.10;99.90;;;;;;5059891;28;20171;-61
2022/10/09 09:12:50;;;;;;;6.83;4.60;;;13.30;99.90;;;;;;5071669;28;20235;-60
2022/10/09 09:24:38;;;;;;;8.50;3.90;;;13.80;99.90;;;;;;5079986;28;20159;-60
2022/10/09 09:31:48;;;;;;;3.53;3.20;;;14.20;99.90;;;;;;5066602;28;20187;-60
2022/10/09 09:39:00;;;;;;;5.77;2.87;;;14.40;99.90;;;;;;5059757;28;20298;-60
2022/10/09 09:50:05;;;;;;;4.93;2.90;;;14.90;99.90;;;;;;5078317;28;20246;-59
2022/10/09 09:57:31;;;;;;;3.17;2.80;;;15.20;99.90;;;;;;5059662;28;20191;-60
2022/10/09 10:00:40;;;;;;;8.13;3.27;;;15.20;99.90;;;;;;5078416;28;20202;-60
2022/10/09 10:17:36;;;;;;;4.13;2.73;;;15.90;99.90;;;;;;5059409;28;20226;-59
2022/10/09 10:24:40;;;;;;;3.63;2.50;;;16.20;99.90;;;;;;5057976;28;20174;-59
2022/10/09 10:27:17;;;;;;;6.07;2.97;;;16.40;99.90;;;;;;5059223;28;20196;-59
2022/10/09 10:39:08;;;;;;;7.87;2.80;;;16.80;99.90;;;;;;5069704;28;20252;-60
2022/10/09 10:46:02;;;;;;;5.00;2.57;;;17.10;99.90;;;;;;5075877;28;20710;-60
2022/10/09 10:58:02;;;;;;;3.87;2.47;;;17.40;99.90;;;;;;5075861;28;20167;-59
2022/10/09 11:09:39;;;;;;;8.77;3.17;;;17.70;99.90;;;;;;5055578;28;20168;-60
2022/10/09 11:12:17;;;;;;;4.37;3.27;;;18.10;99.90;;;;;;5055352;28;20263;-60
2022/10/09 11:24:32;;;;;;;7.07;3.33;;;18.20;99.90;;;;;;5075330;28;20163;-60
2022/10/09 11:31:50;;;;;;;5.70;3.03;;;18.40;99.90;;;;;;5075458;28;20245;-60
2022/10/09 11:39:00;;;;;;;5.10;2.50;;;18.20;99.90;;;;;;5075241;28;20160;-59
2022/10/09 11:41:31;;;;;;;4.33;2.80;;;18.30;99.90;;;;;;5054838;28;20215;-60
2022/10/09 11:48:48;;;;;;;4.40;2.73;;;18.60;99.90;;;;;;5054801;28;20164;-61
2022/10/09 11:59:44;;;;;;;5.73;4.80;;;19.10;99.90;;;;;;5054655;28;20157;-60
2022/10/09 12:06:53;;;;;;;7.30;2.90;;;19.30;99.90;;;;;;5075068;28;20297;-60
2022/10/09 12:09:24;;;;;;;3.27;2.57;;;19.40;99.90;;;;;;5074712;28;20184;-60
2022/10/09 12:30:38;;;;;;;4.43;2.60;;;19.40;99.90;;;;;;5073927;28;20676;-60
2022/10/09 12:42:25;;;;;;;4.33;2.70;;;19.60;99.90;;;;;;5053571;28;20686;-59
2022/10/09 12:49:39;;;;;;;5.47;2.50;;;19.70;99.90;;;;;;5053554;28;20156;-59
2022/10/09 12:52:15;;;;;;;7.73;2.53;;;19.60;99.90;;;;;;5052163;28;20251;-59
2022/10/09 12:59:24;;;;;;;7.50;2.40;;;19.40;99.90;;;;;;5053388;28;20176;-59
2022/10/09 13:01:57;;;;;;;3.30;2.13;;;19.20;99.90;;;;;;5053247;28;20221;-59
2022/10/09 13:04:31;;;;;;;6.97;2.30;;;18.90;99.90;;;;;;5053744;28;20254;-60
2022/10/09 13:11:46;;;;;;;4.03;2.23;;;19.10;99.90;;;;;;5053309;28;20171;-59
2022/10/09 13:14:26;;;;;;;6.87;2.37;;;19.00;99.90;;;;;;5053675;28;20624;-59
2022/10/09 13:16:55;;;;;;;5.20;2.20;;;19.00;99.90;;;;;;5052150;28;20192;-59
2022/10/09 13:24:08;;;;;;;4.20;2.60;;;19.10;99.90;;;;;;5053157;28;20222;-59
2022/10/09 13:26:38;;;;;;;4.53;1.70;;;19.00;99.90;;;;;;5053557;28;20192;-59
2022/10/09 13:29:08;;;;;;;1.97;1.70;;;18.80;99.90;;;;;;5053594;28;20192;-59
2022/10/09 13:36:26;;;;;;;3.60;1.70;;;18.70;99.90;;;;;;5053647;28;20152;-59
2022/10/09 13:38:55;;;;;;;6.77;2.40;;;18.80;99.90;;;;;;5052897;28;20202;-59
2022/10/09 13:46:16;;;;;;;4.10;2.00;;;19.00;99.90;;;;;;5053026;28;20158;-59
2022/10/09 13:53:28;;;;;;;3.13;1.93;;;19.10;99.90;;;;;;5052831;28;20176;-59
2022/10/09 14:05:40;;;;;;;2.33;1.80;;;19.30;99.90;;;;;;5052743;28;20168;-59
2022/10/09 14:12:46;;;;;;;2.83;2.00;;;19.10;99.90;;;;;;5056513;28;20172;-60
2022/10/09 14:15:15;;;;;;;2.40;1.80;;;19.40;99.90;;;;;;5056239;28;20220;-59
2022/10/09 14:22:29;;;;;;;1.90;1.43;;;19.10;99.90;;;;;;5056377;28;20192;-59
2022/10/09 14:24:57;;;;;;;4.60;1.80;;;19.20;99.90;;;;;;5056239;28;20276;-60
2022/10/09 14:32:05;;;;;;;4.33;1.70;;;19.50;99.90;;;;;;5056426;28;20247;-60
2022/10/09 14:39:18;;;;;;;4.43;1.80;;;19.60;99.90;;;;;;5056145;28;20160;-59
2022/10/09 14:46:27;;;;;;;5.40;2.03;;;19.40;99.90;;;;;;5055843;28;20283;-60
2022/10/09 14:53:42;;;;;;;2.90;2.63;;;19.50;99.90;;;;;;5055564;28;20528;-60
2022/10/09 15:00:49;;;;;;;5.10;2.50;;;19.50;99.90;;;;;;5055717;28;20164;-59
2022/10/09 15:08:01;;;;;;;3.90;2.07;;;19.60;99.90;;;;;;5055507;28;20698;-60
2022/10/09 15:15:09;;;;;;;4.93;2.40;;;19.90;99.90;;;;;;5075319;28;20214;-59
2022/10/09 15:17:40;;;;;;;4.27;2.43;;;19.80;99.90;;;;;;5075591;28;20188;-61
2022/10/09 15:20:09;;;;;;;2.33;2.13;;;19.70;99.90;;;;;;5074588;28;20199;-60
2022/10/09 15:27:28;;;;;;;3.83;2.03;;;19.80;99.90;;;;;;5075004;28;20160;-59
2022/10/09 15:29:57;;;;;;;3.70;2.00;;;19.90;99.90;;;;;;5075229;28;20195;-59
2022/10/09 15:37:10;;;;;;;3.87;2.90;;;19.70;99.90;;;;;;5075386;28;20226;-60
2022/10/09 15:44:17;;;;;;;3.70;2.30;;;19.50;99.90;;;;;;5075177;28;20171;-60
2022/10/09 15:51:31;;;;;;;6.47;2.43;;;19.30;99.90;;;;;;5074940;28;20580;-60
2022/10/09 15:58:39;;;;;;;5.53;2.60;;;19.00;99.90;;;;;;5074450;28;20223;-60
2022/10/09 16:05:51;;;;;;;2.40;1.80;;;19.10;99.90;;;;;;5074336;28;20167;-59
2022/10/09 16:12:58;;;;;;;1.60;1.50;;;19.30;99.90;;;;;;5074650;28;20190;-59
2022/10/09 16:15:28;;;;;;;2.50;1.53;;;19.00;99.90;;;;;;5074165;28;20224;-60
2022/10/09 16:22:41;;;;;;;3.83;1.80;;;18.50;99.90;;;;;;5074443;28;20266;-59
2022/10/09 16:25:10;;;;;;;1.77;1.67;;;18.20;99.90;;;;;;5073844;28;20199;-59
2022/10/09 16:32:18;;;;;;;2.60;1.77;;;18.00;99.90;;;;;;5073456;28;20170;-59
2022/10/09 16:34:49;;;;;;;2.57;1.90;;;17.80;99.90;;;;;;5073546;28;20199;-59
2022/10/09 16:37:17;;;;;;;4.43;1.83;;;17.70;99.90;;;;;;5080094;28;20656;-60
2022/10/09 16:44:23;;;;;;;4.43;1.90;;;17.40;99.90;;;;;;5094099;28;20173;-59
2022/10/09 16:46:53;;;;;;;5.27;2.40;;;17.30;99.90;;;;;;5093800;28;20216;-60
2022/10/09 16:54:03;;;;;;;6.03;3.50;;;17.10;99.90;;;;;;5094095;28;20199;-60
2022/10/09 17:01:16;;;;;;;3.53;3.17;;;16.50;99.90;;;;;;5094060;28;20182;-60
2022/10/09 17:08:30;;;;;;;7.27;4.00;;;16.00;99.90;;;;;;5093675;28;20659;-60
2022/10/09 17:20:36;;;;;;;4.03;2.50;;;15.40;99.90;;;;;;5093799;28;20302;-59
2022/10/09 17:27:49;;;;;;;3.87;2.50;;;15.00;99.90;;;;;;5093307;28;20275;-60
2022/10/09 17:30:18;;;;;;;2.93;2.50;;;14.80;99.90;;;;;;5093345;28;20183;-60
2022/10/09 17:37:26;;;;;;;3.87;3.00;;;14.50;99.90;;;;;;5053085;28;20260;-61
2022/10/09 17:44:37;;;;;;;6.47;3.10;;;14.10;99.90;;;;;;5057371;28;20536;-60
2022/10/09 17:51:43;;;;;;;6.80;2.60;;;13.80;99.90;;;;;;5076840;28;20190;-60
2022/10/09 17:59:01;;;;;;;4.30;3.67;;;13.50;99.90;;;;;;5077244;28;20155;-60
2022/10/09 18:06:08;;;;;;;5.53;4.37;;;13.20;99.90;;;;;;5076628;28;20199;-59
2022/10/09 18:08:36;;;;;;;10.17;5.73;;;13.10;99.90;;;;;;5075336;28;20223;-60
2022/10/09 18:11:08;;;;;;;14.20;8.57;;;13.00;99.90;;;;;;5076476;28;20546;-60
2022/10/09 18:13:37;;;;;;;13.97;8.23;;;13.00;99.90;;;;;;5076780;28;20195;-60
2022/10/09 18:16:09;;;;;;;11.93;7.67;;;12.90;99.90;;;;;;5076308;28;20281;-59
2022/10/09 18:18:38;;;;;;;10.80;5.80;;;12.80;99.90;;;;;;5076496;28;20631;-59
2022/10/09 18:21:08;;;;;;;12.43;5.60;;;12.70;99.90;;;;;;5076236;28;20185;-60
2022/10/09 18:23:38;;;;;;;10.03;6.40;;;12.60;99.90;;;;;;5076252;28;20550;-60
2022/10/09 18:30:51;;;;;;;9.43;5.93;;;12.40;99.90;;;;;;5076329;28;20227;-60
2022/10/09 18:33:21;;;;;;;12.83;6.23;;;12.30;99.90;;;;;;5076446;28;20195;-60
2022/10/09 18:35:50;;;;;;;14.43;5.87;;;12.20;99.90;;;;;;5075962;28;20199;-60
2022/10/09 18:38:18;;;;;;;12.70;5.57;;;12.10;99.90;;;;;;5076208;28;20196;-59
2022/10/09 18:40:46;;;;;;;12.53;6.70;;;12.00;99.90;;;;;;5075887;28;20199;-59
2022/10/09 18:43:14;;;;;;;8.23;5.60;;;11.90;99.90;;;;;;5076492;28;20216;-59
2022/10/09 18:45:46;;;;;;;12.77;5.97;;;11.90;99.90;;;;;;5058447;28;20191;-59
2022/10/09 18:48:15;;;;;;;10.23;6.00;;;11.80;99.90;;;;;;5075166;28;20203;-63
2022/10/09 18:50:45;;;;;;;8.07;6.37;;;11.70;99.90;;;;;;5075047;28;20283;-62
2022/10/09 18:53:13;;;;;;;6.47;5.77;;;11.70;99.90;;;;;;5075697;28;20191;-62
2022/10/09 18:55:43;;;;;;;10.03;5.73;;;11.60;99.90;;;;;;5075384;28;20203;-62
2022/10/09 18:58:12;;;;;;;15.50;6.93;;;11.50;99.90;;;;;;5074433;28;20263;-62
2022/10/09 19:00:41;;;;;;;7.93;6.30;;;11.50;99.90;;;;;;5076388;28;20199;-62
2022/10/09 19:03:10;;;;;;;9.70;7.00;;;11.40;99.90;;;;;;5075683;28;20204;-63
2022/10/09 19:05:38;;;;;;;14.13;7.93;;;11.40;99.90;;;;;;5075809;28;20189;-62
2022/10/09 19:08:08;;;;;;;11.80;7.83;;;11.40;99.90;;;;;;5074135;28;20192;-62
2022/10/09 19:10:36;;;;;;;14.60;8.73;;;11.40;99.90;;;;;;5075382;28;20192;-62
2022/10/09 19:17:36;;;;;;;16.00;8.20;;;11.30;99.90;;;;;;5075238;28;20570;-63
2022/10/09 19:20:05;;;;;;;14.47;8.93;;;11.30;99.90;;;;;;5075411;28;20195;-63
2022/10/09 19:22:33;;;;;;;12.60;8.40;;;11.30;99.90;;;;;;5075597;28;20199;-63
2022/10/09 19:25:05;;;;;;;15.10;9.50;;;11.20;99.90;;;;;;5075780;28;20200;-63
2022/10/09 19:27:33;;;;;;;17.97;11.43;;;11.20;99.90;;;;;;5075267;28;20647;-61
2022/10/09 19:30:02;;;;;;;14.23;9.70;;;11.10;99.90;;;;;;5075500;28;20283;-62
2022/10/09 19:32:30;;;;;;;14.43;9.87;;;11.10;99.90;;;;;;5074956;28;20200;-62
2022/10/09 19:34:59;;;;;;;14.57;9.63;;;11.10;99.90;;;;;;5074883;28;20189;-62
2022/10/09 19:37:27;;;;;;;13.87;9.00;;;11.00;99.90;;;;;;5074891;28;20188;-62
2022/10/09 19:39:57;;;;;;;16.30;9.13;;;11.00;99.90;;;;;;5074833;28;20204;-62
2022/10/09 19:42:27;;;;;;;16.50;9.97;;;10.90;99.90;;;;;;5075303;28;20201;-63
2022/10/09 19:44:55;;;;;;;17.53;11.27;;;10.80;99.90;;;;;;5074926;28;20208;-61
2022/10/09 19:47:24;;;;;;;17.80;10.97;;;10.80;99.90;;;;;;5073751;28;20196;-62